Time;durP1;ratioP1;P1;durP2;ratioP2;P2;SDS_P1;SDS_P2;PMS_P1;PMS_P2;Temp;Humidity;BMP_temperature;BMP_pressure;BME280_temperature;BME280_humidity;BME280_pressure;Samples;Min_cycle;Max_cycle;Signal;HPM_P1;HPM_P2
2023/06/09 00:02:06;;;;;;;12.25;6.47;;;21.40;89.50;;;;;;5018767;28;20565;-61
2023/06/09 00:04:35;;;;;;;11.50;5.80;;;21.40;89.70;;;;;;5019386;28;20034;-60
2023/06/09 00:07:02;;;;;;;10.02;5.53;;;21.40;89.70;;;;;;5021045;28;20626;-60
2023/06/09 00:09:31;;;;;;;7.43;5.57;;;21.30;89.90;;;;;;5013752;28;20826;-60
2023/06/09 00:11:58;;;;;;;7.05;4.90;;;21.30;90.00;;;;;;5021642;28;20052;-60
2023/06/09 00:14:24;;;;;;;5.90;4.75;;;21.30;90.00;;;;;;5019202;28;20046;-62
2023/06/09 00:16:51;;;;;;;7.22;5.00;;;21.30;90.00;;;;;;5021957;28;20073;-60
2023/06/09 00:19:17;;;;;;;9.98;5.82;;;21.20;90.10;;;;;;5019690;28;20042;-60
2023/06/09 00:21:49;;;;;;;7.25;5.70;;;21.20;90.10;;;;;;5018435;28;20189;-60
2023/06/09 00:24:20;;;;;;;8.18;5.40;;;21.20;90.20;;;;;;5020275;28;20491;-60
2023/06/09 00:26:47;;;;;;;7.40;5.40;;;21.20;90.20;;;;;;5018132;28;20042;-62
2023/06/09 00:29:12;;;;;;;8.07;5.20;;;21.10;90.20;;;;;;5018437;28;20557;-60
2023/06/09 00:31:41;;;;;;;7.90;5.68;;;21.10;90.30;;;;;;5020824;28;20053;-61
2023/06/09 00:34:08;;;;;;;6.93;5.53;;;21.10;90.30;;;;;;5020748;28;20084;-60
2023/06/09 00:36:33;;;;;;;6.25;5.40;;;21.10;90.40;;;;;;5020160;28;20496;-60
2023/06/09 00:38:59;;;;;;;9.57;5.63;;;21.10;90.40;;;;;;5018205;28;20042;-60
2023/06/09 00:41:25;;;;;;;6.43;5.35;;;21.10;90.40;;;;;;5019195;28;20053;-60
2023/06/09 00:43:53;;;;;;;9.02;6.20;;;21.10;90.50;;;;;;5018550;28;20048;-60
2023/06/09 00:46:19;;;;;;;9.63;5.70;;;21.10;90.50;;;;;;5019961;28;20138;-60
2023/06/09 00:48:45;;;;;;;7.97;5.55;;;21.00;90.50;;;;;;5021197;28;20587;-60
2023/06/09 00:51:11;;;;;;;11.00;5.45;;;21.00;90.60;;;;;;5049354;28;20459;-60
2023/06/09 00:53:37;;;;;;;7.15;4.68;;;21.00;90.60;;;;;;5020042;28;20041;-61
2023/06/09 00:56:03;;;;;;;8.43;4.93;;;21.00;90.70;;;;;;5017933;28;20136;-60
2023/06/09 00:58:30;;;;;;;7.35;6.05;;;20.90;90.70;;;;;;5018739;28;20042;-60
2023/06/09 01:00:57;;;;;;;10.57;5.75;;;20.80;90.70;;;;;;5018438;28;20045;-60
2023/06/09 01:03:24;;;;;;;7.43;6.00;;;20.90;90.90;;;;;;5018490;28;20579;-60
2023/06/09 01:05:58;;;;;;;8.32;5.80;;;20.90;90.90;;;;;;5020734;28;20057;-60
2023/06/09 01:09:13;;;;;;;8.40;5.80;;;20.90;90.90;;;;;;5021213;28;20524;-60
2023/06/09 01:12:10;;;;;;;9.50;5.88;;;20.90;91.00;;;;;;5008971;28;20056;-60
2023/06/09 01:14:47;;;;;;;6.88;5.68;;;20.80;91.00;;;;;;5018302;28;20042;-60
2023/06/09 01:17:18;;;;;;;7.88;5.30;;;20.80;91.10;;;;;;5019987;28;20033;-60
2023/06/09 01:19:54;;;;;;;7.40;6.25;;;20.70;91.10;;;;;;5019007;28;20125;-60
2023/06/09 01:22:48;;;;;;;10.02;6.43;;;20.70;91.20;;;;;;5018789;28;20050;-60
2023/06/09 01:25:34;;;;;;;10.02;6.50;;;20.70;91.20;;;;;;5021773;28;20452;-60
2023/06/09 01:28:07;;;;;;;28.17;8.48;;;20.70;91.30;;;;;;5020942;28;20609;-60
2023/06/09 01:30:34;;;;;;;22.85;8.70;;;20.70;91.30;;;;;;5022882;28;20613;-60
2023/06/09 01:33:08;;;;;;;11.10;6.28;;;20.60;91.40;;;;;;5019662;28;20088;-60
2023/06/09 01:35:35;;;;;;;11.63;6.90;;;20.60;91.40;;;;;;5022100;28;20034;-60
2023/06/09 01:38:02;;;;;;;8.30;6.53;;;20.60;91.50;;;;;;5019224;28;20046;-60
2023/06/09 01:40:29;;;;;;;14.40;7.88;;;20.50;91.60;;;;;;5022374;28;20069;-60
2023/06/09 01:43:00;;;;;;;8.65;6.38;;;20.60;91.70;;;;;;5022329;28;20595;-60
2023/06/09 01:45:26;;;;;;;7.13;5.68;;;20.50;91.70;;;;;;5020603;28;20053;-60
2023/06/09 01:47:53;;;;;;;8.30;6.38;;;20.50;91.80;;;;;;5020710;28;20540;-60
2023/06/09 01:50:43;;;;;;;7.07;6.10;;;20.40;91.90;;;;;;5022268;28;20785;-60
2023/06/09 01:53:14;;;;;;;8.15;6.78;;;20.30;92.00;;;;;;5022041;28;20120;-60
2023/06/09 01:55:44;;;;;;;8.40;6.80;;;20.30;92.00;;;;;;5020170;28;20454;-60
2023/06/09 01:58:39;;;;;;;9.55;7.35;;;20.30;92.10;;;;;;5018473;28;20049;-60
2023/06/09 02:01:06;;;;;;;10.52;7.55;;;20.30;92.20;;;;;;5016040;28;20536;-60
2023/06/09 02:03:35;;;;;;;11.18;7.40;;;20.30;92.20;;;;;;5023978;28;20050;-59
2023/06/09 02:06:03;;;;;;;7.40;6.63;;;20.20;92.30;;;;;;5024018;28;20077;-60
2023/06/09 02:08:30;;;;;;;11.60;7.38;;;20.20;92.40;;;;;;5021321;28;20128;-60
2023/06/09 02:10:56;;;;;;;8.30;6.82;;;20.20;92.50;;;;;;5020828;28;20053;-61
2023/06/09 02:13:22;;;;;;;14.60;7.97;;;20.20;92.50;;;;;;5020463;28;20057;-60
2023/06/09 02:15:48;;;;;;;11.93;8.18;;;20.20;92.60;;;;;;5017314;28;20124;-60
2023/06/09 02:18:17;;;;;;;10.38;6.75;;;20.10;92.60;;;;;;5021164;28;20049;-60
2023/06/09 02:20:43;;;;;;;11.02;6.95;;;20.10;92.70;;;;;;5020572;28;20411;-60
2023/06/09 02:23:10;;;;;;;10.68;7.40;;;20.00;92.70;;;;;;5022199;28;20045;-60
2023/06/09 02:25:36;;;;;;;8.05;6.80;;;20.00;92.80;;;;;;5015971;28;20045;-60
2023/06/09 02:28:03;;;;;;;10.20;7.13;;;20.00;92.90;;;;;;5052439;28;20491;-60
2023/06/09 02:30:29;;;;;;;9.32;7.65;;;20.00;92.90;;;;;;5019768;28;20104;-60
2023/06/09 02:32:55;;;;;;;8.65;6.68;;;20.00;93.00;;;;;;5018863;28;20094;-60
2023/06/09 02:35:21;;;;;;;13.07;7.85;;;19.90;93.10;;;;;;5021929;28;20553;-60
2023/06/09 02:37:47;;;;;;;11.35;7.47;;;19.90;93.10;;;;;;5018255;28;20053;-60
2023/06/09 02:40:13;;;;;;;9.68;8.18;;;19.90;93.30;;;;;;5021805;28;20072;-60
2023/06/09 02:42:39;;;;;;;11.20;8.00;;;19.80;93.40;;;;;;5019562;28;20052;-60
2023/06/09 02:45:07;;;;;;;9.57;7.97;;;19.80;93.40;;;;;;5017896;28;20049;-60
2023/06/09 02:47:33;;;;;;;7.95;6.47;;;19.70;93.50;;;;;;5019600;28;20879;-61
2023/06/09 02:49:58;;;;;;;9.80;7.75;;;19.70;93.60;;;;;;5021348;28;20247;-61
2023/06/09 02:52:28;;;;;;;15.10;9.27;;;19.70;93.60;;;;;;5025024;28;20655;-60
2023/06/09 02:54:54;;;;;;;9.85;7.97;;;19.70;93.70;;;;;;5022418;28;20041;-60
2023/06/09 02:57:20;;;;;;;10.73;8.50;;;19.70;93.60;;;;;;5025519;28;20050;-60
2023/06/09 02:59:46;;;;;;;12.88;8.10;;;19.70;93.70;;;;;;5022560;28;20052;-61
2023/06/09 03:02:12;;;;;;;10.93;7.40;;;19.60;93.70;;;;;;5022918;28;20080;-61
2023/06/09 03:04:40;;;;;;;9.65;8.30;;;19.60;93.80;;;;;;5022300;28;20141;-60
2023/06/09 03:07:09;;;;;;;9.38;8.38;;;19.60;94.00;;;;;;5023875;28;20050;-60
2023/06/09 03:09:35;;;;;;;12.63;8.65;;;19.50;94.00;;;;;;5024575;28;20038;-60
2023/06/09 03:12:01;;;;;;;13.70;8.63;;;19.50;94.00;;;;;;5024812;28;20046;-60
2023/06/09 03:14:27;;;;;;;13.75;9.55;;;19.50;94.10;;;;;;5025144;28;20046;-61
2023/06/09 03:16:53;;;;;;;10.50;7.53;;;19.50;94.20;;;;;;5023080;28;20123;-60
2023/06/09 03:19:20;;;;;;;11.57;8.63;;;19.40;94.30;;;;;;5022022;28;20053;-61
2023/06/09 03:21:46;;;;;;;13.25;9.13;;;19.40;94.40;;;;;;5023275;28;20038;-60
2023/06/09 03:24:12;;;;;;;13.15;8.63;;;19.40;94.40;;;;;;5020575;28;20504;-60
2023/06/09 03:26:37;;;;;;;12.35;8.98;;;19.40;94.50;;;;;;5026027;28;21271;-60
2023/06/09 03:29:03;;;;;;;12.98;7.82;;;19.30;94.60;;;;;;5023888;28;20124;-60
2023/06/09 03:31:30;;;;;;;13.07;8.52;;;19.30;94.80;;;;;;5021963;28;20045;-60
2023/06/09 03:33:56;;;;;;;11.35;9.85;;;19.30;94.80;;;;;;5021597;28;20610;-60
2023/06/09 03:36:23;;;;;;;13.82;9.02;;;19.30;94.80;;;;;;5054213;28;20045;-60
2023/06/09 03:38:50;;;;;;;11.32;8.57;;;19.20;94.90;;;;;;5023552;28;20041;-60
2023/06/09 03:41:15;;;;;;;14.57;9.10;;;19.30;94.90;;;;;;5016252;28;20224;-60
2023/06/09 03:43:41;;;;;;;12.30;9.57;;;19.20;95.20;;;;;;5018704;28;20552;-60
2023/06/09 03:46:07;;;;;;;12.93;9.23;;;19.20;95.10;;;;;;5023944;28;20069;-60
2023/06/09 03:48:32;;;;;;;12.88;8.65;;;19.10;95.10;;;;;;5022237;28;20112;-60
2023/06/09 03:50:58;;;;;;;11.93;7.93;;;19.00;95.20;;;;;;5021158;28;20487;-60
2023/06/09 03:53:24;;;;;;;12.52;8.98;;;19.10;95.30;;;;;;5020216;28;20833;-60
2023/06/09 03:55:50;;;;;;;11.85;8.60;;;19.10;95.30;;;;;;5015450;28;20684;-60
2023/06/09 03:58:16;;;;;;;10.27;8.75;;;19.10;95.40;;;;;;5019785;28;20042;-61
2023/06/09 04:00:42;;;;;;;12.40;9.30;;;19.10;95.40;;;;;;5024183;28;20041;-60
2023/06/09 04:03:08;;;;;;;12.93;8.73;;;19.00;95.40;;;;;;5025420;28;20049;-60
2023/06/09 04:05:34;;;;;;;10.80;8.45;;;19.10;95.60;;;;;;5022399;28;20057;-60
2023/06/09 04:08:00;;;;;;;11.60;8.93;;;19.10;95.60;;;;;;5003342;28;20068;-60
2023/06/09 04:10:26;;;;;;;13.75;9.90;;;19.00;95.60;;;;;;5021506;28;20116;-60
2023/06/09 04:12:51;;;;;;;11.48;8.07;;;18.90;95.70;;;;;;5018562;28;20048;-61
2023/06/09 04:15:18;;;;;;;13.10;9.18;;;19.00;95.80;;;;;;5015097;28;20067;-59
2023/06/09 04:17:43;;;;;;;11.40;8.35;;;19.00;95.80;;;;;;5015707;28;20037;-60
2023/06/09 04:20:10;;;;;;;11.77;8.38;;;19.00;95.90;;;;;;5016374;28;20136;-60
2023/06/09 04:22:35;;;;;;;11.77;8.77;;;19.00;95.90;;;;;;5015206;28;20069;-60
2023/06/09 04:25:02;;;;;;;14.10;10.13;;;18.90;96.00;;;;;;5016225;28;20072;-60
2023/06/09 04:27:29;;;;;;;12.70;9.02;;;18.90;96.00;;;;;;5015205;28;20045;-60
2023/06/09 04:29:55;;;;;;;14.18;9.30;;;18.90;96.10;;;;;;5015666;28;20299;-60
2023/06/09 04:32:21;;;;;;;15.82;9.25;;;19.00;96.20;;;;;;5015950;28;20041;-60
2023/06/09 04:34:47;;;;;;;11.60;9.32;;;19.00;96.20;;;;;;5024007;28;20353;-61
2023/06/09 04:37:13;;;;;;;12.60;8.93;;;19.10;96.20;;;;;;5008092;28;20049;-60
2023/06/09 04:39:45;;;;;;;16.92;9.88;;;19.10;96.20;;;;;;5021847;28;20133;-60
2023/06/09 04:42:11;;;;;;;13.82;9.48;;;19.10;96.20;;;;;;5024860;28;20606;-60
2023/06/09 04:44:39;;;;;;;10.52;8.07;;;19.20;96.20;;;;;;5023149;28;20049;-60
2023/06/09 04:47:05;;;;;;;12.40;8.23;;;19.30;96.30;;;;;;5014584;28;20144;-62
2023/06/09 04:49:31;;;;;;;13.20;8.00;;;19.30;96.30;;;;;;5014626;28;20046;-60
2023/06/09 04:51:57;;;;;;;15.82;8.48;;;19.30;96.40;;;;;;5046784;28;20167;-59
2023/06/09 04:54:25;;;;;;;11.18;8.77;;;19.20;96.40;;;;;;5016106;28;20567;-60
2023/06/09 04:56:57;;;;;;;13.88;8.63;;;19.20;96.50;;;;;;5015453;28;20496;-61
2023/06/09 04:59:28;;;;;;;17.20;9.93;;;19.20;96.50;;;;;;5019864;28;20592;-61
2023/06/09 05:01:55;;;;;;;13.60;8.48;;;19.20;96.60;;;;;;5023454;28;20642;-60
2023/06/09 05:04:21;;;;;;;17.98;9.48;;;19.20;96.60;;;;;;5021490;28;20042;-60
2023/06/09 05:06:47;;;;;;;11.65;8.38;;;19.20;96.70;;;;;;5017922;28;20095;-59
2023/06/09 05:09:13;;;;;;;18.85;9.68;;;19.30;96.80;;;;;;5024583;28;20104;-60
2023/06/09 05:11:38;;;;;;;16.65;9.20;;;19.30;96.80;;;;;;5025257;28;20046;-60
2023/06/09 05:14:07;;;;;;;15.38;8.23;;;19.30;96.90;;;;;;5025483;28;20037;-59
2023/06/09 05:16:34;;;;;;;12.68;8.60;;;19.40;96.90;;;;;;5024716;28;20834;-59
2023/06/09 05:19:00;;;;;;;15.35;10.02;;;19.40;97.00;;;;;;5026203;28;20051;-59
2023/06/09 05:21:26;;;;;;;14.75;9.20;;;19.40;97.10;;;;;;5024147;28;20629;-60
2023/06/09 05:23:52;;;;;;;10.48;8.75;;;19.50;97.10;;;;;;5023079;28;20110;-59
2023/06/09 05:26:18;;;;;;;9.75;7.78;;;19.60;97.20;;;;;;5025511;28;20042;-60
2023/06/09 05:28:45;;;;;;;10.60;7.60;;;19.70;97.30;;;;;;5024400;28;20053;-60
2023/06/09 05:31:14;;;;;;;10.00;7.50;;;19.80;97.30;;;;;;5024328;28;20540;-60
2023/06/09 05:33:41;;;;;;;8.18;6.97;;;20.00;97.30;;;;;;5019828;28;20073;-59
2023/06/09 05:36:08;;;;;;;8.80;6.63;;;20.00;97.30;;;;;;5021405;28;20038;-59
2023/06/09 05:38:34;;;;;;;14.93;6.65;;;20.10;97.30;;;;;;5023284;28;20060;-59
2023/06/09 05:41:00;;;;;;;11.30;7.47;;;20.20;97.30;;;;;;5022709;28;20623;-60
2023/06/09 05:43:27;;;;;;;11.80;7.07;;;20.20;97.30;;;;;;5023974;28;20039;-59
2023/06/09 05:45:54;;;;;;;12.15;7.03;;;20.20;97.20;;;;;;5022493;28;20616;-59
2023/06/09 05:48:20;;;;;;;7.20;6.28;;;20.30;97.30;;;;;;5024312;28;20062;-60
2023/06/09 05:50:46;;;;;;;19.10;8.05;;;20.40;97.30;;;;;;5019674;28;20042;-59
2023/06/09 05:53:12;;;;;;;12.35;7.15;;;20.40;97.30;;;;;;5021880;28;20197;-59
2023/06/09 05:55:38;;;;;;;12.70;7.57;;;20.40;97.20;;;;;;5023099;28;20042;-59
2023/06/09 05:58:04;;;;;;;18.27;7.38;;;20.50;97.30;;;;;;5016048;28;20140;-60
2023/06/09 06:00:30;;;;;;;7.43;6.53;;;20.50;97.20;;;;;;5002777;28;20038;-60
2023/06/09 06:02:59;;;;;;;24.38;6.95;;;20.50;97.30;;;;;;5015125;28;20041;-59
2023/06/09 06:05:24;;;;;;;7.50;6.65;;;20.60;97.20;;;;;;5020089;28;20037;-59
2023/06/09 06:07:51;;;;;;;9.45;6.47;;;20.60;97.20;;;;;;5018186;28;20049;-60
2023/06/09 06:10:17;;;;;;;7.75;6.43;;;20.60;97.20;;;;;;5021940;28;20583;-60
2023/06/09 06:12:42;;;;;;;12.32;6.72;;;20.60;97.20;;;;;;5002712;28;20038;-60
2023/06/09 06:15:08;;;;;;;11.00;8.02;;;20.60;97.20;;;;;;5020352;28;20042;-59
2023/06/09 06:17:34;;;;;;;7.95;6.32;;;20.60;97.30;;;;;;5027019;28;20045;-59
2023/06/09 06:20:00;;;;;;;11.60;6.82;;;20.70;97.30;;;;;;5027176;28;20750;-59
2023/06/09 06:22:26;;;;;;;8.73;6.28;;;20.70;97.40;;;;;;5027920;28;20865;-60
2023/06/09 06:24:52;;;;;;;12.77;6.97;;;20.70;97.40;;;;;;5026657;28;20052;-60
2023/06/09 06:27:17;;;;;;;11.02;7.65;;;20.70;97.40;;;;;;5026613;28;20053;-60
2023/06/09 06:29:43;;;;;;;8.00;6.93;;;20.70;97.50;;;;;;5024085;28;20042;-59
2023/06/09 06:32:10;;;;;;;12.35;8.05;;;20.80;97.50;;;;;;5025399;28;20642;-59
2023/06/09 06:34:36;;;;;;;15.38;8.02;;;20.80;97.50;;;;;;5025890;28;20042;-60
2023/06/09 06:37:01;;;;;;;14.95;6.68;;;20.80;97.60;;;;;;5027890;28;20528;-59
2023/06/09 06:39:27;;;;;;;8.75;5.85;;;20.90;97.70;;;;;;5026678;28;20804;-59
2023/06/09 06:41:53;;;;;;;9.23;6.20;;;20.90;97.70;;;;;;5026845;28;20045;-60
2023/06/09 06:44:19;;;;;;;18.88;6.47;;;21.00;97.70;;;;;;5027922;28;21107;-59
2023/06/09 06:46:45;;;;;;;7.63;5.90;;;21.10;97.70;;;;;;5055465;28;20065;-59
2023/06/09 06:49:11;;;;;;;7.93;5.65;;;21.20;97.60;;;;;;5024409;28;20535;-60
2023/06/09 06:51:37;;;;;;;9.13;6.65;;;21.30;97.60;;;;;;5041536;28;20073;-60
2023/06/09 06:54:04;;;;;;;11.10;7.13;;;21.40;97.50;;;;;;5026786;28;20038;-59
2023/06/09 06:56:29;;;;;;;26.85;10.35;;;21.40;97.40;;;;;;5026474;28;20126;-60
2023/06/09 06:58:55;;;;;;;11.98;7.30;;;21.50;97.50;;;;;;5025525;28;20091;-60
2023/06/09 07:01:22;;;;;;;8.05;6.30;;;21.60;97.50;;;;;;5028018;28;20508;-60
2023/06/09 07:03:50;;;;;;;10.60;5.63;;;21.70;97.40;;;;;;5022890;28;20136;-60
2023/06/09 07:06:16;;;;;;;11.38;5.65;;;21.70;97.20;;;;;;5024090;28;20058;-60
2023/06/09 07:08:43;;;;;;;13.48;6.53;;;21.70;97.30;;;;;;5024485;28;20046;-59
2023/06/09 07:11:09;;;;;;;13.43;7.72;;;21.80;97.00;;;;;;5024229;28;20916;-60
2023/06/09 07:13:35;;;;;;;22.77;6.18;;;21.80;97.00;;;;;;5023363;28;20045;-60
2023/06/09 07:16:01;;;;;;;10.02;6.47;;;21.80;97.00;;;;;;5023316;28;20544;-60
2023/06/09 07:18:27;;;;;;;15.52;5.65;;;21.90;96.90;;;;;;5024679;28;20045;-60
2023/06/09 07:20:53;;;;;;;11.95;6.45;;;22.00;96.90;;;;;;5019912;28;21331;-60
2023/06/09 07:23:19;;;;;;;9.82;6.40;;;22.00;96.90;;;;;;5024218;28;20478;-60
2023/06/09 07:25:45;;;;;;;7.90;5.90;;;22.10;96.90;;;;;;5022895;28;20041;-60
2023/06/09 07:28:10;;;;;;;7.90;6.05;;;22.20;97.00;;;;;;5024819;28;20045;-60
2023/06/09 07:30:40;;;;;;;7.32;5.70;;;22.20;96.80;;;;;;5023747;28;20065;-60
2023/06/09 07:33:06;;;;;;;8.00;5.53;;;22.30;96.80;;;;;;5024656;28;20068;-60
2023/06/09 07:35:32;;;;;;;10.82;6.28;;;22.40;96.70;;;;;;5023336;28;20060;-60
2023/06/09 07:37:58;;;;;;;9.38;5.93;;;22.50;96.70;;;;;;5024818;28;20590;-60
2023/06/09 07:40:24;;;;;;;8.55;6.15;;;22.60;96.90;;;;;;5026905;28;20096;-60
2023/06/09 07:42:50;;;;;;;9.55;5.38;;;22.70;96.50;;;;;;5024717;28;20129;-55
2023/06/09 07:45:16;;;;;;;10.25;6.88;;;22.80;96.40;;;;;;5039187;28;20586;-52
2023/06/09 07:47:41;;;;;;;8.38;5.72;;;22.90;96.30;;;;;;5024225;28;20057;-52
2023/06/09 07:50:08;;;;;;;11.15;6.30;;;23.00;96.20;;;;;;5024662;28;20068;-52
2023/06/09 07:52:36;;;;;;;8.05;6.00;;;23.10;96.10;;;;;;5009835;28;21057;-53
2023/06/09 07:55:03;;;;;;;11.52;5.95;;;23.10;96.00;;;;;;5023496;28;20706;-52
2023/06/09 07:57:29;;;;;;;7.35;5.10;;;23.20;96.00;;;;;;5026921;28;20041;-51
2023/06/09 07:59:56;;;;;;;10.23;5.65;;;23.30;96.00;;;;;;5024742;28;20038;-52
2023/06/09 08:02:21;;;;;;;10.80;5.20;;;23.40;95.90;;;;;;5025931;28;20053;-52
2023/06/09 08:04:47;;;;;;;7.72;4.97;;;23.40;95.80;;;;;;5007728;28;20049;-52
2023/06/09 08:07:13;;;;;;;7.07;5.20;;;23.50;95.70;;;;;;5024225;28;20052;-52
2023/06/09 08:09:39;;;;;;;9.15;5.80;;;23.60;95.60;;;;;;5025327;28;20412;-52
2023/06/09 08:12:08;;;;;;;10.55;6.13;;;23.60;95.50;;;;;;5021579;28;20981;-51
2023/06/09 08:14:34;;;;;;;8.38;5.65;;;23.70;95.40;;;;;;5026144;28;20444;-52
2023/06/09 08:17:00;;;;;;;8.68;6.38;;;23.70;95.30;;;;;;5023737;28;20124;-52
2023/06/09 08:19:26;;;;;;;8.88;6.00;;;23.80;95.20;;;;;;5025243;28;20087;-51
2023/06/09 08:21:52;;;;;;;6.82;5.40;;;23.90;95.20;;;;;;5023916;28;20424;-52
2023/06/09 08:24:17;;;;;;;8.73;5.38;;;24.00;95.10;;;;;;5024993;28;20516;-52
2023/06/09 08:26:43;;;;;;;7.03;5.15;;;24.00;95.00;;;;;;5022922;28;20092;-52
2023/06/09 08:29:10;;;;;;;7.03;5.55;;;24.00;94.90;;;;;;4992133;28;20042;-52
2023/06/09 08:31:39;;;;;;;7.55;5.47;;;24.10;94.80;;;;;;5021736;28;20047;-51
2023/06/09 08:34:06;;;;;;;7.70;6.30;;;24.10;94.80;;;;;;5018712;28;20168;-52
2023/06/09 08:36:32;;;;;;;10.65;5.53;;;24.20;94.80;;;;;;5023787;28;20045;-52
2023/06/09 08:38:57;;;;;;;10.52;6.20;;;24.20;94.70;;;;;;5026749;28;20541;-52
2023/06/09 08:41:28;;;;;;;8.95;6.45;;;24.20;94.70;;;;;;5023620;28;20064;-52
2023/06/09 08:43:55;;;;;;;10.05;6.32;;;24.30;94.70;;;;;;5024590;28;20508;-52
2023/06/09 08:46:22;;;;;;;6.88;5.97;;;24.30;94.70;;;;;;5023492;28;20049;-52
2023/06/09 08:48:56;;;;;;;11.93;6.65;;;24.40;94.70;;;;;;5025244;28;20088;-52
2023/06/09 08:51:22;;;;;;;9.18;5.75;;;24.40;94.80;;;;;;5023268;28;20072;-53
2023/06/09 08:53:55;;;;;;;6.45;5.75;;;24.50;94.70;;;;;;5025143;28;20083;-52
2023/06/09 08:56:21;;;;;;;9.00;6.18;;;24.50;94.60;;;;;;5022736;28;20928;-52
2023/06/09 08:58:48;;;;;;;7.00;5.80;;;24.50;94.60;;;;;;5024426;28;20046;-52
2023/06/09 09:01:15;;;;;;;7.82;5.65;;;24.40;94.50;;;;;;5022726;28;20049;-52
2023/06/09 09:03:41;;;;;;;8.02;5.80;;;24.40;94.50;;;;;;5023707;28;20064;-53
2023/06/09 09:06:08;;;;;;;10.50;5.75;;;24.40;94.50;;;;;;5023168;28;20048;-52
2023/06/09 09:08:34;;;;;;;10.13;5.82;;;24.30;94.50;;;;;;5023261;28;20122;-52
2023/06/09 09:10:59;;;;;;;6.63;5.85;;;24.30;94.60;;;;;;5036528;28;20049;-52
2023/06/09 09:13:31;;;;;;;9.68;5.85;;;24.20;94.60;;;;;;5023630;28;20083;-52
2023/06/09 09:16:01;;;;;;;6.80;5.60;;;24.20;94.70;;;;;;5021483;28;20451;-53
2023/06/09 09:18:36;;;;;;;9.05;6.30;;;24.30;94.70;;;;;;5024398;28;20468;-53
2023/06/09 09:21:02;;;;;;;7.53;6.07;;;24.30;94.70;;;;;;5023052;28;20461;-53
2023/06/09 09:23:32;;;;;;;6.38;5.78;;;24.20;94.70;;;;;;5023356;28;20042;-52
2023/06/09 09:26:05;;;;;;;7.85;6.43;;;24.30;94.70;;;;;;5023501;28;20160;-52
2023/06/09 09:28:42;;;;;;;7.10;6.40;;;24.30;94.80;;;;;;5024809;28;20046;-52
2023/06/09 09:31:08;;;;;;;7.40;4.93;;;24.30;94.80;;;;;;5022082;28;20046;-52
2023/06/09 09:33:38;;;;;;;8.50;5.97;;;24.40;94.80;;;;;;5017017;28;20046;-52
2023/06/09 09:36:09;;;;;;;8.82;5.90;;;24.40;95.00;;;;;;5020608;28;20038;-52
2023/06/09 09:38:35;;;;;;;8.57;5.10;;;24.40;94.70;;;;;;5020599;28;20036;-52
2023/06/09 09:41:01;;;;;;;6.38;5.10;;;24.50;94.70;;;;;;5023696;28;20049;-52
2023/06/09 09:43:30;;;;;;;7.65;6.03;;;24.50;94.60;;;;;;5014497;28;20050;-53
2023/06/09 09:46:01;;;;;;;10.60;6.57;;;24.50;94.60;;;;;;5023439;28;20053;-52
2023/06/09 09:48:27;;;;;;;10.10;5.25;;;24.50;94.60;;;;;;5027276;28;20446;-52
2023/06/09 09:50:57;;;;;;;6.32;5.30;;;24.70;94.60;;;;;;5026053;28;20088;-52
2023/06/09 09:53:24;;;;;;;7.50;5.85;;;24.70;94.50;;;;;;5027409;28;20049;-52
2023/06/09 09:55:53;;;;;;;9.20;5.78;;;24.70;94.40;;;;;;5026762;28;20092;-52
2023/06/09 09:58:20;;;;;;;8.55;5.65;;;24.70;94.30;;;;;;5026174;28;20101;-52
2023/06/09 10:00:48;;;;;;;7.63;5.45;;;24.70;94.20;;;;;;5024964;28;20615;-53
2023/06/09 10:03:18;;;;;;;7.65;5.30;;;24.80;94.20;;;;;;5027133;28;20069;-52
2023/06/09 10:05:49;;;;;;;7.50;6.53;;;24.80;94.00;;;;;;5027412;28;20121;-52
2023/06/09 10:08:26;;;;;;;7.53;5.47;;;24.80;94.30;;;;;;5027387;28;20426;-52
2023/06/09 10:10:53;;;;;;;6.43;4.63;;;24.80;94.00;;;;;;5027399;28;20053;-52
2023/06/09 10:13:20;;;;;;;6.00;4.95;;;24.80;94.00;;;;;;5058512;28;20053;-53
2023/06/09 10:15:46;;;;;;;7.38;5.30;;;24.80;93.80;;;;;;5026746;28;20041;-52
2023/06/09 10:18:12;;;;;;;8.13;5.72;;;24.90;93.70;;;;;;5024852;28;20532;-52
2023/06/09 10:20:42;;;;;;;7.30;5.15;;;24.90;93.50;;;;;;5027278;28;20042;-53
2023/06/09 10:23:08;;;;;;;8.73;5.43;;;25.00;93.50;;;;;;5026242;28;20046;-53
2023/06/09 10:25:34;;;;;;;6.43;5.10;;;25.10;93.40;;;;;;5027554;28;20046;-52
2023/06/09 10:28:00;;;;;;;7.80;4.97;;;25.20;93.10;;;;;;5027168;28;20050;-52
2023/06/09 10:30:26;;;;;;;7.40;4.93;;;25.40;93.00;;;;;;5021524;28;20548;-53
2023/06/09 10:33:04;;;;;;;7.45;5.07;;;25.50;92.80;;;;;;5016590;28;20053;-52
2023/06/09 10:35:33;;;;;;;6.38;4.65;;;25.60;92.60;;;;;;5022863;28;20049;-53
2023/06/09 10:38:19;;;;;;;8.20;5.47;;;25.70;92.50;;;;;;5026544;28;20534;-52
2023/06/09 10:40:49;;;;;;;12.23;5.50;;;25.90;92.40;;;;;;5024071;28;20046;-53
2023/06/09 10:43:53;;;;;;;7.18;4.95;;;26.10;92.30;;;;;;5024221;28;20136;-53
2023/06/09 10:46:44;;;;;;;7.22;5.40;;;26.30;92.00;;;;;;5017874;28;20045;-53
2023/06/09 10:49:40;;;;;;;7.57;5.40;;;26.40;92.00;;;;;;5027522;28;20524;-53
2023/06/09 10:52:08;;;;;;;9.48;4.95;;;26.60;91.80;;;;;;5024451;28;20104;-53
2023/06/09 10:54:35;;;;;;;8.02;5.82;;;26.70;91.60;;;;;;5027319;28;20172;-52
2023/06/09 10:57:37;;;;;;;10.60;5.35;;;26.70;91.40;;;;;;5025848;28;20038;-52
2023/06/09 11:00:09;;;;;;;;;;;26.80;91.10;;;;;;5026240;28;20121;-53
2023/06/09 11:02:35;;;;;;;5.82;5.05;;;26.80;90.90;;;;;;5026791;28;19928;-52
2023/06/09 11:05:04;;;;;;;7.50;5.28;;;26.70;90.80;;;;;;5055432;28;20061;-53
2023/06/09 11:07:38;;;;;;;10.25;5.45;;;26.70;90.60;;;;;;5053158;28;20037;-52
2023/06/09 11:10:06;;;;;;;7.88;5.38;;;26.70;90.40;;;;;;5024069;28;20627;-52
2023/06/09 11:12:46;;;;;;;7.72;5.50;;;26.70;90.40;;;;;;5023608;28;20117;-52
2023/06/09 11:15:15;;;;;;;10.18;5.75;;;26.70;90.20;;;;;;5022196;28;20410;-53
2023/06/09 11:17:54;;;;;;;6.18;5.45;;;26.70;90.10;;;;;;5022798;28;20047;-53
2023/06/09 11:20:23;;;;;;;10.40;5.65;;;26.80;90.10;;;;;;5021079;28;20124;-53
2023/06/09 11:22:48;;;;;;;7.90;5.47;;;26.80;90.00;;;;;;5023381;28;20042;-52
2023/06/09 11:25:17;;;;;;;6.00;4.68;;;26.90;90.00;;;;;;5023232;28;20424;-53
2023/06/09 11:28:05;;;;;;;10.52;6.28;;;27.10;89.70;;;;;;5023451;28;20185;-53
2023/06/09 11:30:32;;;;;;;10.00;5.65;;;27.20;90.00;;;;;;5021018;28;20141;-53
2023/06/09 11:33:00;;;;;;;6.60;5.40;;;27.20;89.20;;;;;;5021301;28;20714;-53
2023/06/09 11:35:29;;;;;;;8.25;5.30;;;27.30;89.30;;;;;;5023411;28;20104;-52
2023/06/09 11:38:09;;;;;;;8.55;6.38;;;27.40;89.20;;;;;;5022435;28;20542;-52
2023/06/09 11:40:37;;;;;;;7.32;5.15;;;27.50;88.50;;;;;;5053227;28;20061;-52
2023/06/09 11:43:09;;;;;;;11.60;5.85;;;27.60;88.20;;;;;;5023139;28;20038;-52
2023/06/09 11:45:36;;;;;;;5.65;4.68;;;27.60;87.80;;;;;;5023112;28;20180;-52
2023/06/09 11:48:05;;;;;;;8.65;4.85;;;27.70;87.70;;;;;;5018741;28;20054;-52
2023/06/09 11:50:42;;;;;;;9.30;5.38;;;27.80;87.40;;;;;;5052921;28;20041;-52
2023/06/09 11:53:09;;;;;;;6.57;5.28;;;27.90;87.00;;;;;;5022491;28;20042;-52
2023/06/09 11:55:35;;;;;;;9.80;5.35;;;28.10;87.00;;;;;;5023194;28;20490;-52
2023/06/09 11:58:02;;;;;;;11.40;5.30;;;28.10;86.00;;;;;;5023415;28;20045;-53
2023/06/09 12:00:30;;;;;;;8.48;4.97;;;28.20;85.90;;;;;;5022349;28;20498;-52
2023/06/09 12:02:57;;;;;;;11.05;6.10;;;28.20;85.80;;;;;;5023463;28;20049;-52
2023/06/09 12:05:28;;;;;;;11.43;4.90;;;28.30;85.70;;;;;;5022236;28;20045;-53
2023/06/09 12:07:55;;;;;;;8.55;5.68;;;28.30;85.60;;;;;;5021474;28;20042;-52
2023/06/09 12:10:24;;;;;;;5.95;5.00;;;28.30;85.30;;;;;;5023017;28;20475;-52
2023/06/09 12:12:52;;;;;;;6.32;5.28;;;28.40;85.10;;;;;;5022206;28;20046;-52
2023/06/09 12:15:19;;;;;;;6.90;5.25;;;28.40;85.10;;;;;;5023116;28;20128;-52
2023/06/09 12:17:53;;;;;;;9.95;5.13;;;28.40;84.90;;;;;;5022474;28;20482;-52
2023/06/09 12:20:35;;;;;;;7.35;4.93;;;28.40;84.30;;;;;;5018973;28;20064;-54
2023/06/09 12:23:07;;;;;;;8.55;5.38;;;28.30;83.80;;;;;;5018769;28;20488;-52
2023/06/09 12:25:37;;;;;;;5.97;4.53;;;28.30;83.40;;;;;;5020487;28;20377;-54
2023/06/09 12:28:22;;;;;;;10.18;4.35;;;28.20;83.10;;;;;;5023023;28;20045;-52
2023/06/09 12:30:56;;;;;;;7.13;4.47;;;28.20;82.60;;;;;;5023819;28;21864;-52
2023/06/09 12:33:23;;;;;;;6.93;4.65;;;28.10;82.10;;;;;;5022748;28;20173;-52
2023/06/09 12:35:54;;;;;;;7.32;5.05;;;28.10;81.70;;;;;;5023556;28;20041;-52
2023/06/09 12:38:26;;;;;;;5.38;4.30;;;28.10;81.60;;;;;;5022311;28;20132;-52
2023/06/09 12:40:54;;;;;;;9.27;5.13;;;28.10;81.40;;;;;;5019063;28;20069;-52
2023/06/09 12:43:22;;;;;;;9.38;4.93;;;28.10;81.40;;;;;;5020732;28;20432;-52
2023/06/09 12:45:49;;;;;;;10.20;6.00;;;28.10;81.20;;;;;;5022047;28;20052;-52
2023/06/09 12:48:16;;;;;;;5.65;4.45;;;28.10;80.60;;;;;;5021789;28;20546;-52
2023/06/09 12:50:43;;;;;;;8.45;5.22;;;28.10;80.10;;;;;;5023545;28;20183;-52